sensor_id;sensor_type;location;lat;lon;timestamp;P1;durP1;ratioP1;P2;durP2;ratioP2
67768;SDS011;54569;52.018;5.584;2023-03-01T00:02:07;13.25;;;8.63;;
67768;SDS011;54569;52.018;5.584;2023-03-01T00:04:33;13.60;;;8.20;;
67768;SDS011;54569;52.018;5.584;2023-03-01T00:07:00;10.73;;;7.15;;
67768;SDS011;54569;52.018;5.584;2023-03-01T00:09:26;9.77;;;7.95;;
67768;SDS011;54569;52.018;5.584;2023-03-01T00:11:52;10.35;;;8.27;;
67768;SDS011;54569;52.018;5.584;2023-03-01T00:14:17;9.68;;;7.78;;
67768;SDS011;54569;52.018;5.584;2023-03-01T00:16:44;12.05;;;7.90;;
67768;SDS011;54569;52.018;5.584;2023-03-01T00:19:14;11.60;;;8.02;;
67768;SDS011;54569;52.018;5.584;2023-03-01T00:21:41;11.05;;;8.05;;
67768;SDS011;54569;52.018;5.584;2023-03-01T00:24:07;10.38;;;7.25;;
67768;SDS011;54569;52.018;5.584;2023-03-01T00:26:34;8.60;;;7.15;;
67768;SDS011;54569;52.018;5.584;2023-03-01T00:29:00;9.35;;;7.43;;
67768;SDS011;54569;52.018;5.584;2023-03-01T00:31:26;9.48;;;7.60;;
67768;SDS011;54569;52.018;5.584;2023-03-01T00:33:58;13.18;;;7.68;;
67768;SDS011;54569;52.018;5.584;2023-03-01T00:36:26;9.90;;;7.57;;
67768;SDS011;54569;52.018;5.584;2023-03-01T00:38:54;9.85;;;7.72;;
67768;SDS011;54569;52.018;5.584;2023-03-01T00:41:20;9.18;;;7.45;;
67768;SDS011;54569;52.018;5.584;2023-03-01T00:43:48;14.48;;;7.88;;
67768;SDS011;54569;52.018;5.584;2023-03-01T00:46:16;10.85;;;7.45;;
67768;SDS011;54569;52.018;5.584;2023-03-01T00:48:43;9.20;;;7.47;;
67768;SDS011;54569;52.018;5.584;2023-03-01T00:51:10;7.82;;;6.68;;
67768;SDS011;54569;52.018;5.584;2023-03-01T00:53:38;9.30;;;6.88;;
67768;SDS011;54569;52.018;5.584;2023-03-01T00:56:05;10.43;;;7.50;;
67768;SDS011;54569;52.018;5.584;2023-03-01T00:58:32;10.48;;;7.63;;
67768;SDS011;54569;52.018;5.584;2023-03-01T01:00:59;11.20;;;7.40;;
67768;SDS011;54569;52.018;5.584;2023-03-01T01:03:25;9.93;;;6.95;;
67768;SDS011;54569;52.018;5.584;2023-03-01T01:05:51;12.18;;;8.43;;
67768;SDS011;54569;52.018;5.584;2023-03-01T01:08:18;9.68;;;8.43;;
67768;SDS011;54569;52.018;5.584;2023-03-01T01:10:47;10.10;;;7.90;;
67768;SDS011;54569;52.018;5.584;2023-03-01T01:13:12;9.85;;;7.82;;
67768;SDS011;54569;52.018;5.584;2023-03-01T01:15:39;9.85;;;8.45;;
67768;SDS011;54569;52.018;5.584;2023-03-01T01:18:05;11.98;;;8.57;;
67768;SDS011;54569;52.018;5.584;2023-03-01T01:20:31;9.60;;;8.50;;
67768;SDS011;54569;52.018;5.584;2023-03-01T01:22:57;11.00;;;8.48;;
67768;SDS011;54569;52.018;5.584;2023-03-01T01:25:23;11.27;;;7.80;;
67768;SDS011;54569;52.018;5.584;2023-03-01T01:27:50;11.35;;;8.05;;
67768;SDS011;54569;52.018;5.584;2023-03-01T01:30:16;9.02;;;7.68;;
67768;SDS011;54569;52.018;5.584;2023-03-01T01:32:42;9.65;;;8.05;;
67768;SDS011;54569;52.018;5.584;2023-03-01T01:35:08;10.90;;;8.25;;
67768;SDS011;54569;52.018;5.584;2023-03-01T01:37:33;9.93;;;7.90;;
67768;SDS011;54569;52.018;5.584;2023-03-01T01:40:00;10.38;;;7.78;;
67768;SDS011;54569;52.018;5.584;2023-03-01T01:42:29;9.02;;;7.22;;
67768;SDS011;54569;52.018;5.584;2023-03-01T01:48:06;10.48;;;7.43;;
67768;SDS011;54569;52.018;5.584;2023-03-01T01:50:39;9.35;;;8.23;;
67768;SDS011;54569;52.018;5.584;2023-03-01T01:53:07;8.32;;;6.93;;
67768;SDS011;54569;52.018;5.584;2023-03-01T01:55:36;9.82;;;7.82;;
67768;SDS011;54569;52.018;5.584;2023-03-01T01:58:08;9.55;;;7.25;;
67768;SDS011;54569;52.018;5.584;2023-03-01T02:00:36;8.85;;;6.85;;
67768;SDS011;54569;52.018;5.584;2023-03-01T02:03:05;9.50;;;7.85;;
67768;SDS011;54569;52.018;5.584;2023-03-01T02:08:02;9.77;;;7.43;;
67768;SDS011;54569;52.018;5.584;2023-03-01T02:10:28;9.80;;;7.40;;
67768;SDS011;54569;52.018;5.584;2023-03-01T02:12:58;11.07;;;7.95;;
67768;SDS011;54569;52.018;5.584;2023-03-01T02:15:26;8.57;;;7.53;;
67768;SDS011;54569;52.018;5.584;2023-03-01T02:17:52;10.27;;;8.02;;
67768;SDS011;54569;52.018;5.584;2023-03-01T02:20:27;10.50;;;8.02;;
67768;SDS011;54569;52.018;5.584;2023-03-01T02:22:57;9.35;;;7.90;;
67768;SDS011;54569;52.018;5.584;2023-03-01T02:25:40;10.07;;;7.50;;
67768;SDS011;54569;52.018;5.584;2023-03-01T02:30:43;7.85;;;7.05;;
67768;SDS011;54569;52.018;5.584;2023-03-01T02:33:31;10.98;;;8.73;;
67768;SDS011;54569;52.018;5.584;2023-03-01T02:36:21;7.93;;;7.00;;
67768;SDS011;54569;52.018;5.584;2023-03-01T02:38:48;10.57;;;7.88;;
67768;SDS011;54569;52.018;5.584;2023-03-01T02:41:17;9.32;;;6.70;;
67768;SDS011;54569;52.018;5.584;2023-03-01T02:43:45;11.18;;;7.45;;
67768;SDS011;54569;52.018;5.584;2023-03-01T02:46:18;9.60;;;7.75;;
67768;SDS011;54569;52.018;5.584;2023-03-01T02:48:48;11.07;;;7.85;;
67768;SDS011;54569;52.018;5.584;2023-03-01T02:56:44;8.68;;;7.75;;
67768;SDS011;54569;52.018;5.584;2023-03-01T02:59:15;9.23;;;7.07;;
67768;SDS011;54569;52.018;5.584;2023-03-01T03:01:46;9.73;;;7.28;;
67768;SDS011;54569;52.018;5.584;2023-03-01T03:04:16;9.07;;;7.68;;
67768;SDS011;54569;52.018;5.584;2023-03-01T03:06:46;8.38;;;7.03;;
67768;SDS011;54569;52.018;5.584;2023-03-01T03:09:13;10.05;;;7.10;;
67768;SDS011;54569;52.018;5.584;2023-03-01T03:11:43;8.75;;;6.88;;
67768;SDS011;54569;52.018;5.584;2023-03-01T03:14:10;11.85;;;7.30;;
67768;SDS011;54569;52.018;5.584;2023-03-01T03:16:44;9.77;;;7.32;;
67768;SDS011;54569;52.018;5.584;2023-03-01T03:19:14;9.32;;;7.93;;
67768;SDS011;54569;52.018;5.584;2023-03-01T03:21:43;10.55;;;7.00;;
67768;SDS011;54569;52.018;5.584;2023-03-01T03:24:09;8.02;;;7.20;;
67768;SDS011;54569;52.018;5.584;2023-03-01T03:26:35;7.78;;;6.90;;
67768;SDS011;54569;52.018;5.584;2023-03-01T03:29:01;7.90;;;7.05;;
67768;SDS011;54569;52.018;5.584;2023-03-01T03:31:27;7.85;;;6.95;;
67768;SDS011;54569;52.018;5.584;2023-03-01T03:33:53;8.23;;;6.82;;
67768;SDS011;54569;52.018;5.584;2023-03-01T03:36:20;8.43;;;6.68;;
67768;SDS011;54569;52.018;5.584;2023-03-01T03:38:48;8.35;;;6.38;;
67768;SDS011;54569;52.018;5.584;2023-03-01T03:41:14;8.93;;;6.45;;
67768;SDS011;54569;52.018;5.584;2023-03-01T03:43:40;7.63;;;6.70;;
67768;SDS011;54569;52.018;5.584;2023-03-01T03:46:07;10.70;;;7.47;;
67768;SDS011;54569;52.018;5.584;2023-03-01T03:48:42;11.57;;;6.80;;
67768;SDS011;54569;52.018;5.584;2023-03-01T03:51:15;8.95;;;6.38;;
67768;SDS011;54569;52.018;5.584;2023-03-01T03:53:43;9.13;;;7.10;;
67768;SDS011;54569;52.018;5.584;2023-03-01T03:56:09;8.75;;;6.30;;
67768;SDS011;54569;52.018;5.584;2023-03-01T03:58:35;8.00;;;6.80;;
67768;SDS011;54569;52.018;5.584;2023-03-01T04:01:01;9.27;;;7.07;;
67768;SDS011;54569;52.018;5.584;2023-03-01T04:03:28;8.52;;;7.20;;
67768;SDS011;54569;52.018;5.584;2023-03-01T04:05:56;8.93;;;6.57;;
67768;SDS011;54569;52.018;5.584;2023-03-01T04:08:25;9.75;;;7.10;;
67768;SDS011;54569;52.018;5.584;2023-03-01T04:10:53;8.73;;;7.10;;
67768;SDS011;54569;52.018;5.584;2023-03-01T04:13:23;7.55;;;6.78;;
67768;SDS011;54569;52.018;5.584;2023-03-01T04:15:53;7.75;;;6.38;;
67768;SDS011;54569;52.018;5.584;2023-03-01T04:18:20;10.32;;;6.65;;
67768;SDS011;54569;52.018;5.584;2023-03-01T04:20:48;9.05;;;7.13;;
67768;SDS011;54569;52.018;5.584;2023-03-01T04:23:14;7.13;;;6.38;;
67768;SDS011;54569;52.018;5.584;2023-03-01T04:25:45;9.27;;;6.75;;
67768;SDS011;54569;52.018;5.584;2023-03-01T04:28:14;7.32;;;6.32;;
67768;SDS011;54569;52.018;5.584;2023-03-01T04:30:40;7.32;;;6.15;;
67768;SDS011;54569;52.018;5.584;2023-03-01T04:33:07;8.52;;;6.20;;
67768;SDS011;54569;52.018;5.584;2023-03-01T04:35:34;8.20;;;6.05;;
67768;SDS011;54569;52.018;5.584;2023-03-01T04:38:01;7.97;;;6.57;;
67768;SDS011;54569;52.018;5.584;2023-03-01T04:40:27;8.77;;;6.68;;
67768;SDS011;54569;52.018;5.584;2023-03-01T04:42:52;7.30;;;6.57;;
67768;SDS011;54569;52.018;5.584;2023-03-01T04:45:19;8.70;;;6.35;;
67768;SDS011;54569;52.018;5.584;2023-03-01T04:47:45;8.52;;;6.55;;
67768;SDS011;54569;52.018;5.584;2023-03-01T04:50:12;8.18;;;6.15;;
67768;SDS011;54569;52.018;5.584;2023-03-01T04:52:41;9.65;;;7.10;;
67768;SDS011;54569;52.018;5.584;2023-03-01T04:55:07;7.13;;;6.43;;
67768;SDS011;54569;52.018;5.584;2023-03-01T04:57:34;7.15;;;6.45;;
67768;SDS011;54569;52.018;5.584;2023-03-01T04:59:59;11.93;;;6.53;;
67768;SDS011;54569;52.018;5.584;2023-03-01T05:02:25;11.10;;;7.07;;
67768;SDS011;54569;52.018;5.584;2023-03-01T05:04:51;7.70;;;6.13;;
67768;SDS011;54569;52.018;5.584;2023-03-01T05:07:17;8.93;;;7.07;;
67768;SDS011;54569;52.018;5.584;2023-03-01T05:10:00;10.13;;;6.32;;
67768;SDS011;54569;52.018;5.584;2023-03-01T05:12:26;8.55;;;6.13;;
67768;SDS011;54569;52.018;5.584;2023-03-01T05:14:51;9.32;;;6.55;;
67768;SDS011;54569;52.018;5.584;2023-03-01T05:17:17;9.10;;;7.30;;
67768;SDS011;54569;52.018;5.584;2023-03-01T05:19:43;11.63;;;6.93;;
67768;SDS011;54569;52.018;5.584;2023-03-01T05:22:08;15.18;;;7.47;;
67768;SDS011;54569;52.018;5.584;2023-03-01T05:24:34;9.60;;;6.88;;
67768;SDS011;54569;52.018;5.584;2023-03-01T05:27:01;10.15;;;7.93;;
67768;SDS011;54569;52.018;5.584;2023-03-01T05:29:27;10.55;;;7.63;;
67768;SDS011;54569;52.018;5.584;2023-03-01T05:31:56;10.68;;;7.68;;
67768;SDS011;54569;52.018;5.584;2023-03-01T05:34:24;11.45;;;6.65;;
67768;SDS011;54569;52.018;5.584;2023-03-01T05:36:51;9.48;;;6.70;;
67768;SDS011;54569;52.018;5.584;2023-03-01T05:39:21;10.63;;;6.75;;
67768;SDS011;54569;52.018;5.584;2023-03-01T05:41:48;12.43;;;7.15;;
67768;SDS011;54569;52.018;5.584;2023-03-01T05:44:17;10.23;;;6.25;;
67768;SDS011;54569;52.018;5.584;2023-03-01T05:46:43;7.57;;;6.50;;
67768;SDS011;54569;52.018;5.584;2023-03-01T05:49:10;7.85;;;6.18;;
67768;SDS011;54569;52.018;5.584;2023-03-01T05:51:36;8.68;;;6.35;;
67768;SDS011;54569;52.018;5.584;2023-03-01T05:54:02;8.75;;;6.60;;
67768;SDS011;54569;52.018;5.584;2023-03-01T05:56:29;8.63;;;6.53;;
67768;SDS011;54569;52.018;5.584;2023-03-01T05:58:56;7.35;;;6.30;;
67768;SDS011;54569;52.018;5.584;2023-03-01T06:01:22;9.70;;;6.80;;
67768;SDS011;54569;52.018;5.584;2023-03-01T06:03:48;8.63;;;6.43;;
67768;SDS011;54569;52.018;5.584;2023-03-01T06:06:13;7.60;;;5.75;;
67768;SDS011;54569;52.018;5.584;2023-03-01T06:08:39;7.43;;;6.35;;
67768;SDS011;54569;52.018;5.584;2023-03-01T06:11:04;10.70;;;6.70;;
67768;SDS011;54569;52.018;5.584;2023-03-01T06:13:32;10.35;;;6.88;;
67768;SDS011;54569;52.018;5.584;2023-03-01T06:15:57;9.80;;;6.85;;
67768;SDS011;54569;52.018;5.584;2023-03-01T06:18:23;9.32;;;6.32;;
67768;SDS011;54569;52.018;5.584;2023-03-01T06:20:53;8.77;;;6.70;;
67768;SDS011;54569;52.018;5.584;2023-03-01T06:23:19;10.88;;;7.13;;
67768;SDS011;54569;52.018;5.584;2023-03-01T06:25:44;10.73;;;7.53;;
67768;SDS011;54569;52.018;5.584;2023-03-01T06:28:10;9.18;;;6.95;;
67768;SDS011;54569;52.018;5.584;2023-03-01T06:30:36;9.43;;;6.47;;
67768;SDS011;54569;52.018;5.584;2023-03-01T06:33:01;10.48;;;7.07;;
67768;SDS011;54569;52.018;5.584;2023-03-01T06:35:30;7.10;;;6.40;;
67768;SDS011;54569;52.018;5.584;2023-03-01T06:37:56;9.68;;;7.50;;
67768;SDS011;54569;52.018;5.584;2023-03-01T06:40:23;9.40;;;6.85;;
67768;SDS011;54569;52.018;5.584;2023-03-01T06:42:49;13.32;;;6.95;;
67768;SDS011;54569;52.018;5.584;2023-03-01T06:45:15;14.38;;;8.88;;
67768;SDS011;54569;52.018;5.584;2023-03-01T06:47:42;16.40;;;8.32;;
67768;SDS011;54569;52.018;5.584;2023-03-01T06:50:08;8.85;;;7.93;;
67768;SDS011;54569;52.018;5.584;2023-03-01T06:52:34;16.27;;;8.10;;
67768;SDS011;54569;52.018;5.584;2023-03-01T06:55:00;14.98;;;8.20;;
67768;SDS011;54569;52.018;5.584;2023-03-01T06:57:26;9.65;;;7.40;;
67768;SDS011;54569;52.018;5.584;2023-03-01T06:59:52;9.90;;;7.18;;
67768;SDS011;54569;52.018;5.584;2023-03-01T07:02:18;9.63;;;7.53;;
67768;SDS011;54569;52.018;5.584;2023-03-01T07:04:43;9.05;;;7.18;;
67768;SDS011;54569;52.018;5.584;2023-03-01T07:07:09;10.55;;;8.02;;
67768;SDS011;54569;52.018;5.584;2023-03-01T07:09:35;12.10;;;7.82;;
67768;SDS011;54569;52.018;5.584;2023-03-01T07:12:01;10.77;;;8.02;;
67768;SDS011;54569;52.018;5.584;2023-03-01T07:14:27;11.38;;;8.07;;
67768;SDS011;54569;52.018;5.584;2023-03-01T07:16:53;12.57;;;8.45;;
67768;SDS011;54569;52.018;5.584;2023-03-01T07:19:19;11.32;;;7.38;;
67768;SDS011;54569;52.018;5.584;2023-03-01T07:21:45;10.75;;;7.72;;
67768;SDS011;54569;52.018;5.584;2023-03-01T07:24:11;11.95;;;7.82;;
67768;SDS011;54569;52.018;5.584;2023-03-01T07:26:37;10.85;;;8.25;;
67768;SDS011;54569;52.018;5.584;2023-03-01T07:29:04;9.00;;;8.10;;
67768;SDS011;54569;52.018;5.584;2023-03-01T07:31:31;12.32;;;8.23;;
67768;SDS011;54569;52.018;5.584;2023-03-01T07:33:56;9.88;;;7.85;;
67768;SDS011;54569;52.018;5.584;2023-03-01T07:36:23;9.85;;;7.05;;
67768;SDS011;54569;52.018;5.584;2023-03-01T07:38:50;11.65;;;7.75;;
67768;SDS011;54569;52.018;5.584;2023-03-01T07:41:15;8.07;;;6.93;;
67768;SDS011;54569;52.018;5.584;2023-03-01T07:43:41;10.00;;;7.68;;
67768;SDS011;54569;52.018;5.584;2023-03-01T07:46:07;8.63;;;7.70;;
67768;SDS011;54569;52.018;5.584;2023-03-01T07:48:33;9.70;;;7.80;;
67768;SDS011;54569;52.018;5.584;2023-03-01T07:50:59;9.02;;;8.05;;
67768;SDS011;54569;52.018;5.584;2023-03-01T07:53:25;10.77;;;7.97;;
67768;SDS011;54569;52.018;5.584;2023-03-01T07:56:04;11.70;;;7.85;;
67768;SDS011;54569;52.018;5.584;2023-03-01T07:58:38;10.93;;;8.27;;
67768;SDS011;54569;52.018;5.584;2023-03-01T08:01:05;9.20;;;7.25;;
67768;SDS011;54569;52.018;5.584;2023-03-01T08:03:33;11.55;;;8.18;;
67768;SDS011;54569;52.018;5.584;2023-03-01T08:06:00;9.35;;;8.02;;
67768;SDS011;54569;52.018;5.584;2023-03-01T08:08:27;12.63;;;8.40;;
67768;SDS011;54569;52.018;5.584;2023-03-01T08:10:52;8.25;;;7.20;;
67768;SDS011;54569;52.018;5.584;2023-03-01T08:13:21;8.95;;;7.60;;
67768;SDS011;54569;52.018;5.584;2023-03-01T08:15:50;14.85;;;8.30;;
67768;SDS011;54569;52.018;5.584;2023-03-01T08:18:19;11.65;;;8.43;;
67768;SDS011;54569;52.018;5.584;2023-03-01T08:20:46;10.43;;;8.85;;
67768;SDS011;54569;52.018;5.584;2023-03-01T08:23:12;9.65;;;8.40;;
67768;SDS011;54569;52.018;5.584;2023-03-01T08:25:38;9.95;;;8.40;;
67768;SDS011;54569;52.018;5.584;2023-03-01T08:28:04;9.60;;;8.32;;
67768;SDS011;54569;52.018;5.584;2023-03-01T08:30:30;10.15;;;7.78;;
67768;SDS011;54569;52.018;5.584;2023-03-01T08:32:56;10.68;;;6.80;;
67768;SDS011;54569;52.018;5.584;2023-03-01T08:35:22;8.68;;;6.53;;
67768;SDS011;54569;52.018;5.584;2023-03-01T08:37:48;6.82;;;6.10;;
67768;SDS011;54569;52.018;5.584;2023-03-01T08:40:14;7.13;;;6.38;;
67768;SDS011;54569;52.018;5.584;2023-03-01T08:42:40;7.32;;;6.43;;
67768;SDS011;54569;52.018;5.584;2023-03-01T08:45:08;6.53;;;5.93;;
67768;SDS011;54569;52.018;5.584;2023-03-01T08:47:34;7.63;;;5.82;;
67768;SDS011;54569;52.018;5.584;2023-03-01T08:50:00;6.88;;;6.10;;
67768;SDS011;54569;52.018;5.584;2023-03-01T08:52:25;6.55;;;5.88;;
67768;SDS011;54569;52.018;5.584;2023-03-01T08:54:52;7.63;;;6.15;;
67768;SDS011;54569;52.018;5.584;2023-03-01T08:57:17;7.30;;;6.15;;
67768;SDS011;54569;52.018;5.584;2023-03-01T08:59:43;8.15;;;5.72;;
67768;SDS011;54569;52.018;5.584;2023-03-01T09:02:14;6.43;;;5.93;;
67768;SDS011;54569;52.018;5.584;2023-03-01T09:04:41;6.15;;;5.65;;
67768;SDS011;54569;52.018;5.584;2023-03-01T09:07:07;5.25;;;4.85;;
67768;SDS011;54569;52.018;5.584;2023-03-01T09:09:33;5.38;;;4.53;;
67768;SDS011;54569;52.018;5.584;2023-03-01T09:11:59;5.28;;;4.88;;
67768;SDS011;54569;52.018;5.584;2023-03-01T09:14:25;4.43;;;4.03;;
67768;SDS011;54569;52.018;5.584;2023-03-01T09:16:51;4.90;;;4.50;;
67768;SDS011;54569;52.018;5.584;2023-03-01T09:19:17;4.63;;;4.22;;
67768;SDS011;54569;52.018;5.584;2023-03-01T09:21:42;4.45;;;4.03;;
67768;SDS011;54569;52.018;5.584;2023-03-01T09:24:18;4.35;;;3.95;;
67768;SDS011;54569;52.018;5.584;2023-03-01T09:26:48;4.70;;;4.22;;
67768;SDS011;54569;52.018;5.584;2023-03-01T09:29:14;4.38;;;3.97;;
67768;SDS011;54569;52.018;5.584;2023-03-01T09:31:41;3.95;;;3.58;;
67768;SDS011;54569;52.018;5.584;2023-03-01T09:34:08;4.47;;;3.90;;
67768;SDS011;54569;52.018;5.584;2023-03-01T09:36:34;3.50;;;3.25;;
67768;SDS011;54569;52.018;5.584;2023-03-01T09:39:00;4.18;;;3.60;;
67768;SDS011;54569;52.018;5.584;2023-03-01T09:41:31;4.05;;;3.75;;
67768;SDS011;54569;52.018;5.584;2023-03-01T09:44:05;4.25;;;3.90;;
67768;SDS011;54569;52.018;5.584;2023-03-01T09:46:40;3.80;;;3.42;;
67768;SDS011;54569;52.018;5.584;2023-03-01T09:49:15;4.03;;;3.72;;
67768;SDS011;54569;52.018;5.584;2023-03-01T09:52:04;4.38;;;3.97;;
67768;SDS011;54569;52.018;5.584;2023-03-01T09:54:46;3.85;;;3.55;;
67768;SDS011;54569;52.018;5.584;2023-03-01T09:57:18;3.72;;;3.42;;
67768;SDS011;54569;52.018;5.584;2023-03-01T09:59:55;3.92;;;3.53;;
67768;SDS011;54569;52.018;5.584;2023-03-01T10:02:57;3.28;;;3.00;;
67768;SDS011;54569;52.018;5.584;2023-03-01T10:06:20;3.33;;;3.03;;
67768;SDS011;54569;52.018;5.584;2023-03-01T10:08:30;3.38;;;3.08;;
67768;SDS011;54569;52.018;5.584;2023-03-01T10:11:19;3.92;;;3.53;;
67768;SDS011;54569;52.018;5.584;2023-03-01T10:13:54;4.15;;;3.30;;
67768;SDS011;54569;52.018;5.584;2023-03-01T10:16:48;3.13;;;2.92;;
67768;SDS011;54569;52.018;5.584;2023-03-01T10:19:34;3.50;;;3.20;;
67768;SDS011;54569;52.018;5.584;2023-03-01T10:22:07;3.90;;;3.50;;
67768;SDS011;54569;52.018;5.584;2023-03-01T10:24:49;3.85;;;3.45;;
67768;SDS011;54569;52.018;5.584;2023-03-01T10:27:24;3.22;;;2.95;;
67768;SDS011;54569;52.018;5.584;2023-03-01T10:32:45;3.63;;;3.33;;
67768;SDS011;54569;52.018;5.584;2023-03-01T10:35:18;3.70;;;3.40;;
67768;SDS011;54569;52.018;5.584;2023-03-01T10:38:03;4.03;;;3.63;;
67768;SDS011;54569;52.018;5.584;2023-03-01T10:40:32;4.50;;;3.50;;
67768;SDS011;54569;52.018;5.584;2023-03-01T10:42:59;3.80;;;3.50;;
67768;SDS011;54569;52.018;5.584;2023-03-01T10:45:33;3.75;;;3.42;;
67768;SDS011;54569;52.018;5.584;2023-03-01T10:48:20;3.35;;;3.05;;
67768;SDS011;54569;52.018;5.584;2023-03-01T10:53:27;4.07;;;3.70;;
67768;SDS011;54569;52.018;5.584;2023-03-01T10:56:06;3.72;;;3.42;;
67768;SDS011;54569;52.018;5.584;2023-03-01T10:58:34;4.45;;;4.05;;
67768;SDS011;54569;52.018;5.584;2023-03-01T11:01:06;4.03;;;3.67;;
67768;SDS011;54569;52.018;5.584;2023-03-01T11:03:41;3.92;;;3.53;;
67768;SDS011;54569;52.018;5.584;2023-03-01T11:11:17;4.22;;;3.60;;
67768;SDS011;54569;52.018;5.584;2023-03-01T11:13:55;3.70;;;3.40;;
67768;SDS011;54569;52.018;5.584;2023-03-01T11:19:03;4.32;;;3.92;;
67768;SDS011;54569;52.018;5.584;2023-03-01T11:21:42;4.15;;;3.83;;
67768;SDS011;54569;52.018;5.584;2023-03-01T11:24:12;3.80;;;3.50;;
67768;SDS011;54569;52.018;5.584;2023-03-01T11:26:40;3.95;;;3.72;;
67768;SDS011;54569;52.018;5.584;2023-03-01T11:29:12;3.92;;;3.55;;
67768;SDS011;54569;52.018;5.584;2023-03-01T11:31:58;5.03;;;3.78;;
67768;SDS011;54569;52.018;5.584;2023-03-01T11:34:36;3.95;;;3.55;;
67768;SDS011;54569;52.018;5.584;2023-03-01T11:37:07;4.45;;;4.05;;
67768;SDS011;54569;52.018;5.584;2023-03-01T11:42:19;4.00;;;3.70;;
67768;SDS011;54569;52.018;5.584;2023-03-01T11:44:54;3.80;;;3.50;;
67768;SDS011;54569;52.018;5.584;2023-03-01T11:50:29;3.67;;;3.30;;
67768;SDS011;54569;52.018;5.584;2023-03-01T12:05:02;3.53;;;3.22;;
67768;SDS011;54569;52.018;5.584;2023-03-01T12:10:26;4.35;;;3.65;;
67768;SDS011;54569;52.018;5.584;2023-03-01T12:30:32;3.75;;;3.40;;
67768;SDS011;54569;52.018;5.584;2023-03-01T12:33:13;3.65;;;3.35;;
67768;SDS011;54569;52.018;5.584;2023-03-01T12:39:29;4.22;;;3.83;;
67768;SDS011;54569;52.018;5.584;2023-03-01T12:47:11;3.90;;;3.50;;
67768;SDS011;54569;52.018;5.584;2023-03-01T12:49:54;5.53;;;4.10;;
67768;SDS011;54569;52.018;5.584;2023-03-01T12:55:03;4.75;;;3.47;;
67768;SDS011;54569;52.018;5.584;2023-03-01T12:57:42;4.40;;;4.00;;
67768;SDS011;54569;52.018;5.584;2023-03-01T13:08:49;3.92;;;3.63;;
67768;SDS011;54569;52.018;5.584;2023-03-01T13:11:32;4.88;;;3.72;;
67768;SDS011;54569;52.018;5.584;2023-03-01T13:16:52;4.07;;;3.67;;
67768;SDS011;54569;52.018;5.584;2023-03-01T13:19:22;4.65;;;3.55;;
67768;SDS011;54569;52.018;5.584;2023-03-01T13:21:50;4.00;;;3.55;;
67768;SDS011;54569;52.018;5.584;2023-03-01T13:24:32;4.35;;;3.95;;
67768;SDS011;54569;52.018;5.584;2023-03-01T13:29:32;4.55;;;4.10;;
67768;SDS011;54569;52.018;5.584;2023-03-01T13:35:00;4.82;;;3.55;;
67768;SDS011;54569;52.018;5.584;2023-03-01T13:37:38;4.30;;;3.90;;
67768;SDS011;54569;52.018;5.584;2023-03-01T13:40:07;3.90;;;3.60;;
67768;SDS011;54569;52.018;5.584;2023-03-01T13:42:50;4.50;;;3.95;;
67768;SDS011;54569;52.018;5.584;2023-03-01T13:45:19;4.03;;;3.45;;
67768;SDS011;54569;52.018;5.584;2023-03-01T13:48:49;4.28;;;3.55;;
67768;SDS011;54569;52.018;5.584;2023-03-01T13:50:51;6.70;;;3.42;;
67768;SDS011;54569;52.018;5.584;2023-03-01T13:53:22;6.32;;;4.00;;
67768;SDS011;54569;52.018;5.584;2023-03-01T13:58:29;4.70;;;3.30;;
67768;SDS011;54569;52.018;5.584;2023-03-01T14:03:30;3.60;;;3.20;;
67768;SDS011;54569;52.018;5.584;2023-03-01T14:08:34;5.82;;;3.50;;
67768;SDS011;54569;52.018;5.584;2023-03-01T14:16:26;6.32;;;3.63;;
67768;SDS011;54569;52.018;5.584;2023-03-01T14:19:18;5.03;;;3.80;;
67768;SDS011;54569;52.018;5.584;2023-03-01T14:21:49;4.65;;;3.92;;
67768;SDS011;54569;52.018;5.584;2023-03-01T14:24:46;6.60;;;4.22;;
67768;SDS011;54569;52.018;5.584;2023-03-01T14:27:34;3.88;;;3.55;;
67768;SDS011;54569;52.018;5.584;2023-03-01T14:30:11;4.47;;;3.97;;
67768;SDS011;54569;52.018;5.584;2023-03-01T14:32:53;7.10;;;4.40;;
67768;SDS011;54569;52.018;5.584;2023-03-01T14:35:22;6.20;;;4.03;;
67768;SDS011;54569;52.018;5.584;2023-03-01T14:37:50;4.13;;;3.72;;
67768;SDS011;54569;52.018;5.584;2023-03-01T14:40:20;4.90;;;3.83;;
67768;SDS011;54569;52.018;5.584;2023-03-01T14:43:00;4.10;;;3.67;;
67768;SDS011;54569;52.018;5.584;2023-03-01T14:45:33;5.78;;;3.88;;
67768;SDS011;54569;52.018;5.584;2023-03-01T14:47:59;3.63;;;3.33;;
67768;SDS011;54569;52.018;5.584;2023-03-01T14:50:31;4.85;;;3.67;;
67768;SDS011;54569;52.018;5.584;2023-03-01T14:52:59;3.60;;;3.30;;
67768;SDS011;54569;52.018;5.584;2023-03-01T14:55:38;4.43;;;3.53;;
67768;SDS011;54569;52.018;5.584;2023-03-01T14:58:09;3.30;;;3.00;;
67768;SDS011;54569;52.018;5.584;2023-03-01T15:03:13;4.45;;;3.22;;
67768;SDS011;54569;52.018;5.584;2023-03-01T15:05:49;4.97;;;3.65;;
67768;SDS011;54569;52.018;5.584;2023-03-01T15:08:20;5.22;;;3.20;;
67768;SDS011;54569;52.018;5.584;2023-03-01T15:10:59;3.75;;;2.97;;
67768;SDS011;54569;52.018;5.584;2023-03-01T15:13:31;3.72;;;3.05;;
67768;SDS011;54569;52.018;5.584;2023-03-01T15:16:11;4.88;;;3.58;;
67768;SDS011;54569;52.018;5.584;2023-03-01T15:18:48;3.40;;;3.10;;
67768;SDS011;54569;52.018;5.584;2023-03-01T15:21:18;4.35;;;3.05;;
67768;SDS011;54569;52.018;5.584;2023-03-01T15:23:48;5.45;;;3.55;;
67768;SDS011;54569;52.018;5.584;2023-03-01T15:26:43;4.80;;;3.85;;
67768;SDS011;54569;52.018;5.584;2023-03-01T15:29:17;4.80;;;3.88;;
67768;SDS011;54569;52.018;5.584;2023-03-01T15:34:31;4.82;;;3.45;;
67768;SDS011;54569;52.018;5.584;2023-03-01T15:36:59;3.65;;;3.33;;
67768;SDS011;54569;52.018;5.584;2023-03-01T15:39:32;3.17;;;2.90;;
67768;SDS011;54569;52.018;5.584;2023-03-01T15:42:05;3.58;;;3.22;;
67768;SDS011;54569;52.018;5.584;2023-03-01T15:44:33;4.63;;;2.80;;
67768;SDS011;54569;52.018;5.584;2023-03-01T15:47:01;3.75;;;3.05;;
67768;SDS011;54569;52.018;5.584;2023-03-01T15:52:13;4.85;;;2.85;;
67768;SDS011;54569;52.018;5.584;2023-03-01T15:54:47;3.35;;;2.58;;
67768;SDS011;54569;52.018;5.584;2023-03-01T15:57:13;5.07;;;2.70;;
67768;SDS011;54569;52.018;5.584;2023-03-01T15:59:40;3.42;;;3.08;;
67768;SDS011;54569;52.018;5.584;2023-03-01T16:02:10;3.75;;;3.00;;
67768;SDS011;54569;52.018;5.584;2023-03-01T16:04:37;3.95;;;3.17;;
67768;SDS011;54569;52.018;5.584;2023-03-01T16:07:03;3.55;;;2.80;;
67768;SDS011;54569;52.018;5.584;2023-03-01T16:09:29;4.60;;;2.90;;
67768;SDS011;54569;52.018;5.584;2023-03-01T16:11:55;4.30;;;3.35;;
67768;SDS011;54569;52.018;5.584;2023-03-01T16:14:20;3.65;;;3.00;;
67768;SDS011;54569;52.018;5.584;2023-03-01T16:16:47;4.10;;;3.22;;
67768;SDS011;54569;52.018;5.584;2023-03-01T16:19:13;3.97;;;3.08;;
67768;SDS011;54569;52.018;5.584;2023-03-01T16:21:41;5.30;;;3.35;;
67768;SDS011;54569;52.018;5.584;2023-03-01T16:24:11;7.30;;;3.70;;
67768;SDS011;54569;52.018;5.584;2023-03-01T16:26:38;3.30;;;2.92;;
67768;SDS011;54569;52.018;5.584;2023-03-01T16:29:04;3.50;;;3.10;;
67768;SDS011;54569;52.018;5.584;2023-03-01T16:31:30;6.93;;;3.47;;
67768;SDS011;54569;52.018;5.584;2023-03-01T16:33:56;4.40;;;3.42;;
67768;SDS011;54569;52.018;5.584;2023-03-01T16:36:23;7.28;;;3.22;;
67768;SDS011;54569;52.018;5.584;2023-03-01T16:38:53;4.30;;;3.55;;
67768;SDS011;54569;52.018;5.584;2023-03-01T16:41:22;4.03;;;3.03;;
67768;SDS011;54569;52.018;5.584;2023-03-01T16:43:49;6.43;;;3.28;;
67768;SDS011;54569;52.018;5.584;2023-03-01T16:46:16;4.38;;;3.63;;
67768;SDS011;54569;52.018;5.584;2023-03-01T16:48:44;4.72;;;3.15;;
67768;SDS011;54569;52.018;5.584;2023-03-01T16:51:11;5.03;;;3.95;;
67768;SDS011;54569;52.018;5.584;2023-03-01T16:53:37;4.57;;;3.65;;
67768;SDS011;54569;52.018;5.584;2023-03-01T16:56:04;6.45;;;4.05;;